Spirit Of New Jersey — WCX9137 — position and weather

sailwx.info

Track history (hours):
 
Tides and Currents Weather Stations Pressure Air Temp Water Temp Dewpoint Dewpoint Depression Visibility Wind Speed Wind Dir Waves Ship Positions

Spirit Of New Jersey

Owner: SPIRIT CRUISES, NEW YORK, NY. More information available from US FCC via Universal Licensing System and Coast Guard Vessel Documentation Center.

Last reported at 2018-Jul-17 00:28 UTC. Time now 2018-Jul-17 11:30 UTC.
Position N 40°45' W 074°01'.

MMSI: 364919326.

Date/timePositionNaut miles runAvg speedWind from/ knotsBaromVisibWave heightAir tempDewpointWater temp
2018-Jul-17 00:28N 40°45' W 074°01'4 4.0
2018-Jul-16 23:30N 40°41' W 074°02'3 5.9
2018-Jul-16 23:00N 40°42' W 073°59'3 5.3
2018-Jul-16 22:30N 40°45' W 074°01'0 0.1
2018-Jul-16 16:57N 40°45' W 074°01'1 1.8
2018-Jul-16 16:30N 40°44' W 074°01'3 6.4
2018-Jul-16 16:00N 40°41' W 074°03'1 2.9
2018-Jul-16 15:30N 40°42' W 074°01'3 0.1
2018-Jul-15 18:39N 40°45' W 074°01'1 0.9
2018-Jul-15 17:53N 40°46' W 074°01'1 2.7
2018-Jul-15 17:30N 40°45' W 074°01'4 7.2
2018-Jul-15 17:00N 40°41' W 074°03'2 3.8
2018-Jul-15 16:30N 40°43' W 074°01'3 5.4
2018-Jul-15 16:00N 40°46' W 074°01'0 0.0
2018-Jul-15 15:30N 40°46' W 074°01'0 0.1
2018-Jul-15 14:58N 40°46' W 074°01'1 0.1
2018-Jul-15 02:44N 40°45' W 074°01'1 3.4
2018-Jul-15 02:30N 40°46' W 074°01'0 0.0
2018-Jul-15 02:00N 40°46' W 074°01'2 3.0
2018-Jul-15 01:30N 40°44' W 074°01'3 5.9
2018-Jul-15 01:00N 40°41' W 074°03'3 5.4
2018-Jul-15 00:30N 40°42' W 073°59'2 3.1
2018-Jul-15 00:00N 40°43' W 074°01'3 6.2
2018-Jul-14 23:30N 40°46' W 074°01'0 0.7
2018-Jul-14 23:00N 40°46' W 074°01'0 0.0
2018-Jul-14 22:30N 40°46' W 074°01'0 0.2
2018-Jul-14 22:00N 40°46' W 074°01'1 1.6
2018-Jul-14 21:29N 40°45' W 074°01'0 0.0
2018-Jul-14 20:47N 40°45' W 074°01'0 0.0
2018-Jul-14 20:30N 40°45' W 074°01'0 0.0
2018-Jul-14 19:59N 40°45' W 074°01'0 0.0
2018-Jul-14 18:05N 40°45' W 074°01'0 0.0
2018-Jul-14 17:48N 40°45' W 074°01'1 4.0
2018-Jul-14 17:30N 40°44' W 074°01'3 5.8
2018-Jul-14 17:00N 40°41' W 074°03'2 4.1
2018-Jul-14 16:30N 40°43' W 074°01'2 3.8
2018-Jul-14 15:58N 40°45' W 074°01'0 0.0
2018-Jul-14 15:29N 40°45' W 074°01'0 0.0
2018-Jul-14 15:00N 40°45' W 074°01'0 0.0
2018-Jul-14 02:19N 40°45' W 074°01'1 2.5
2018-Jul-14 02:00N 40°46' W 074°01'0 0.0
2018-Jul-14 01:30N 40°46' W 074°01'1 1.1
2018-Jul-14 01:01N 40°45' W 074°01'4 7.6
2018-Jul-14 00:30N 40°41' W 074°02'2 3.1
2018-Jul-14 00:00N 40°43' W 074°02'3 6.3
2018-Jul-13 23:30N 40°46' W 074°01'0 0.8
2018-Jul-13 22:59N 40°46' W 074°01'0 0.0
2018-Jul-13 22:30N 40°46' W 074°01'0 0.0
2018-Jul-13 22:00N 40°46' W 074°01'1 0.2
2018-Jul-13 18:02N 40°45' W 074°01'0 0.3
2018-Jul-13 18:00N 40°45' W 074°01'1 1.8
2018-Jul-13 17:30N 40°44' W 074°01'3 6.0
2018-Jul-13 17:00N 40°41' W 074°02'2 3.7
2018-Jul-13 16:30N 40°43' W 074°01'2 4.1
2018-Jul-13 16:00N 40°45' W 074°01'0 0.0
2018-Jul-13 15:27N 40°45' W 074°01'0 0.0
2018-Jul-13 15:00N 40°45' W 074°01'0 0.0
2018-Jul-13 14:30N 40°45' W 074°01'0 0.0
2018-Jul-13 02:34N 40°45' W 074°01'0 0.1
2018-Jul-13 02:28N 40°45' W 074°01'1 2.9
2018-Jul-13 02:00N 40°44' W 074°01'3 5.5
2018-Jul-13 01:30N 40°41' W 074°03'3 5.0
2018-Jul-13 01:00N 40°42' W 073°60'1 2.2
2018-Jul-13 00:30N 40°42' W 074°01'2 4.3
2018-Jul-13 00:00N 40°44' W 074°01'1 0.1
2018-Jul-12 18:44N 40°45' W 074°01'0 0.0
2018-Jul-12 18:19N 40°45' W 074°01'0 0.0
2018-Jul-12 18:00N 40°45' W 074°01'1 2.1
2018-Jul-12 17:30N 40°44' W 074°01'3 5.0
2018-Jul-12 17:00N 40°42' W 074°02'1 1.7
2018-Jul-12 16:30N 40°42' W 074°01'3 4.3
2018-Jul-12 15:51N 40°45' W 074°01'0 0.0
2018-Jul-12 15:30N 40°45' W 074°01'0 0.0
2018-Jul-12 01:30N 40°45' W 074°01'1 1.4
2018-Jul-12 01:00N 40°44' W 074°01'3 6.0
2018-Jul-12 00:30N 40°41' W 074°02'2 3.6
2018-Jul-12 00:00N 40°42' W 074°00'3 5.7
2018-Jul-11 23:30N 40°45' W 074°01'1 2.0
2018-Jul-11 22:55N 40°46' W 074°00'1 2.1
2018-Jul-11 22:29N 40°45' W 074°01'0 0.0
2018-Jul-11 18:52N 40°45' W 074°01'0 0.0
2018-Jul-11 17:55N 40°45' W 074°01'2 3.8
2018-Jul-11 17:30N 40°43' W 074°01'2 4.9
2018-Jul-11 17:00N 40°41' W 074°03'1 2.9
2018-Jul-11 16:30N 40°42' W 074°01'3 0.2
2018-Jul-11 01:53N 40°45' W 074°01'0 0.0
2018-Jul-11 01:30N 40°45' W 074°01'1 1.9
2018-Jul-11 01:00N 40°44' W 074°01'3 6.0
2018-Jul-11 00:30N 40°41' W 074°02'2 4.0
2018-Jul-11 00:00N 40°42' W 074°00'3 6.6
2018-Jul-10 23:30N 40°45' W 074°01'0 0.9
2018-Jul-10 22:57N 40°45' W 074°01'0 0.0
2018-Jul-09 23:55N 40°45' W 074°01'1 1.8
2018-Jul-09 23:30N 40°44' W 074°01'3 6.5
2018-Jul-09 23:00N 40°41' W 074°03'1 2.8
2018-Jul-09 22:30N 40°42' W 074°01'3 0.1
2018-Jul-08 02:50N 40°45' W 074°01'1 2.3
2018-Jul-08 02:31N 40°46' W 074°01'0 0.0
2018-Jul-08 02:00N 40°46' W 074°01'1 2.9
2018-Jul-08 01:30N 40°44' W 074°01'3 5.5
2018-Jul-08 01:01N 40°42' W 074°02'3 5.6
2018-Jul-08 00:30N 40°43' W 073°59'2 3.9
2018-Jul-08 00:01N 40°42' W 074°01'3 7.0
2018-Jul-07 23:31N 40°46' W 074°01'0 0.3
2018-Jul-07 23:00N 40°46' W 074°01'0 0.0
2018-Jul-07 22:31N 40°46' W 074°01'0 0.0
2018-Jul-07 22:00N 40°46' W 074°01'1 0.2
2018-Jul-07 18:49N 40°45' W 074°01'1 2.6
2018-Jul-07 18:30N 40°46' W 074°01'0 0.0
2018-Jul-07 18:00N 40°46' W 074°01'1 1.0
2018-Jul-07 17:31N 40°45' W 074°01'4 8.4
2018-Jul-07 17:00N 40°41' W 074°03'2 3.2
2018-Jul-07 16:30N 40°43' W 074°02'3 5.6
2018-Jul-07 15:58N 40°46' W 074°01'0 0.0
2018-Jul-07 15:30N 40°46' W 074°01'0 0.0
2018-Jul-07 15:00N 40°46' W 074°01'1 1.5
2018-Jul-07 14:29N 40°45' W 074°01'  
Track history (hours):
 
Tides and Currents Weather Stations Pressure Air Temp Water Temp Dewpoint Dewpoint Depression Visibility Wind Speed Wind Dir Waves Ship Positions

Spirit Of New Jersey

Owner: SPIRIT CRUISES, NEW YORK, NY. More information available from US FCC via Universal Licensing System and Coast Guard Vessel Documentation Center.

Last reported at 2018-Jul-17 00:28 UTC. Time now 2018-Jul-17 11:30 UTC.
Position N 40°45' W 074°01'.

MMSI: 364919326.

Date/timePositionNaut miles runAvg speedWind from/ knotsBaromVisibWave heightAir tempDewpointWater temp
2018-Jul-17 00:28N 40°45' W 074°01'4 4.0
2018-Jul-16 23:30N 40°41' W 074°02'3 5.9
2018-Jul-16 23:00N 40°42' W 073°59'3 5.3
2018-Jul-16 22:30N 40°45' W 074°01'0 0.1
2018-Jul-16 16:57N 40°45' W 074°01'1 1.8
2018-Jul-16 16:30N 40°44' W 074°01'3 6.4
2018-Jul-16 16:00N 40°41' W 074°03'1 2.9
2018-Jul-16 15:30N 40°42' W 074°01'3 0.1
2018-Jul-15 18:39N 40°45' W 074°01'1 0.9
2018-Jul-15 17:53N 40°46' W 074°01'1 2.7
2018-Jul-15 17:30N 40°45' W 074°01'4 7.2
2018-Jul-15 17:00N 40°41' W 074°03'2 3.8
2018-Jul-15 16:30N 40°43' W 074°01'3 5.4
2018-Jul-15 16:00N 40°46' W 074°01'0 0.0
2018-Jul-15 15:30N 40°46' W 074°01'0 0.1
2018-Jul-15 14:58N 40°46' W 074°01'1 0.1
2018-Jul-15 02:44N 40°45' W 074°01'1 3.4
2018-Jul-15 02:30N 40°46' W 074°01'0 0.0
2018-Jul-15 02:00N 40°46' W 074°01'2 3.0
2018-Jul-15 01:30N 40°44' W 074°01'3 5.9
2018-Jul-15 01:00N 40°41' W 074°03'3 5.4
2018-Jul-15 00:30N 40°42' W 073°59'2 3.1
2018-Jul-15 00:00N 40°43' W 074°01'3 6.2
2018-Jul-14 23:30N 40°46' W 074°01'0 0.7
2018-Jul-14 23:00N 40°46' W 074°01'0 0.0
2018-Jul-14 22:30N 40°46' W 074°01'0 0.2
2018-Jul-14 22:00N 40°46' W 074°01'1 1.6
2018-Jul-14 21:29N 40°45' W 074°01'0 0.0
2018-Jul-14 20:47N 40°45' W 074°01'0 0.0
2018-Jul-14 20:30N 40°45' W 074°01'0 0.0
2018-Jul-14 19:59N 40°45' W 074°01'0 0.0
2018-Jul-14 18:05N 40°45' W 074°01'0 0.0
2018-Jul-14 17:48N 40°45' W 074°01'1 4.0
2018-Jul-14 17:30N 40°44' W 074°01'3 5.8
2018-Jul-14 17:00N 40°41' W 074°03'2 4.1
2018-Jul-14 16:30N 40°43' W 074°01'2 3.8
2018-Jul-14 15:58N 40°45' W 074°01'0 0.0
2018-Jul-14 15:29N 40°45' W 074°01'0 0.0
2018-Jul-14 15:00N 40°45' W 074°01'0 0.0
2018-Jul-14 02:19N 40°45' W 074°01'1 2.5
2018-Jul-14 02:00N 40°46' W 074°01'0 0.0
2018-Jul-14 01:30N 40°46' W 074°01'1 1.1
2018-Jul-14 01:01N 40°45' W 074°01'4 7.6
2018-Jul-14 00:30N 40°41' W 074°02'2 3.1
2018-Jul-14 00:00N 40°43' W 074°02'3 6.3
2018-Jul-13 23:30N 40°46' W 074°01'0 0.8
2018-Jul-13 22:59N 40°46' W 074°01'0 0.0
2018-Jul-13 22:30N 40°46' W 074°01'0 0.0
2018-Jul-13 22:00N 40°46' W 074°01'1 0.2
2018-Jul-13 18:02N 40°45' W 074°01'0 0.3
2018-Jul-13 18:00N 40°45' W 074°01'1 1.8
2018-Jul-13 17:30N 40°44' W 074°01'3 6.0
2018-Jul-13 17:00N 40°41' W 074°02'2 3.7
2018-Jul-13 16:30N 40°43' W 074°01'2 4.1
2018-Jul-13 16:00N 40°45' W 074°01'0 0.0
2018-Jul-13 15:27N 40°45' W 074°01'0 0.0
2018-Jul-13 15:00N 40°45' W 074°01'0 0.0
2018-Jul-13 14:30N 40°45' W 074°01'0 0.0
2018-Jul-13 02:34N 40°45' W 074°01'0 0.1
2018-Jul-13 02:28N 40°45' W 074°01'1 2.9
2018-Jul-13 02:00N 40°44' W 074°01'3 5.5
2018-Jul-13 01:30N 40°41' W 074°03'3 5.0
2018-Jul-13 01:00N 40°42' W 073°60'1 2.2
2018-Jul-13 00:30N 40°42' W 074°01'2 4.3
2018-Jul-13 00:00N 40°44' W 074°01'1 0.1
2018-Jul-12 18:44N 40°45' W 074°01'0 0.0
2018-Jul-12 18:19N 40°45' W 074°01'0 0.0
2018-Jul-12 18:00N 40°45' W 074°01'1 2.1
2018-Jul-12 17:30N 40°44' W 074°01'3 5.0
2018-Jul-12 17:00N 40°42' W 074°02'1 1.7
2018-Jul-12 16:30N 40°42' W 074°01'3 4.3
2018-Jul-12 15:51N 40°45' W 074°01'0 0.0
2018-Jul-12 15:30N 40°45' W 074°01'0 0.0
2018-Jul-12 01:30N 40°45' W 074°01'1 1.4
2018-Jul-12 01:00N 40°44' W 074°01'3 6.0
2018-Jul-12 00:30N 40°41' W 074°02'2 3.6
2018-Jul-12 00:00N 40°42' W 074°00'3 5.7
2018-Jul-11 23:30N 40°45' W 074°01'1 2.0
2018-Jul-11 22:55N 40°46' W 074°00'1 2.1
2018-Jul-11 22:29N 40°45' W 074°01'0 0.0
2018-Jul-11 18:52N 40°45' W 074°01'0 0.0
2018-Jul-11 17:55N 40°45' W 074°01'2 3.8
2018-Jul-11 17:30N 40°43' W 074°01'2 4.9
2018-Jul-11 17:00N 40°41' W 074°03'1 2.9
2018-Jul-11 16:30N 40°42' W 074°01'3 0.2
2018-Jul-11 01:53N 40°45' W 074°01'0 0.0
2018-Jul-11 01:30N 40°45' W 074°01'1 1.9
2018-Jul-11 01:00N 40°44' W 074°01'3 6.0
2018-Jul-11 00:30N 40°41' W 074°02'2 4.0
2018-Jul-11 00:00N 40°42' W 074°00'3 6.6
2018-Jul-10 23:30N 40°45' W 074°01'0 0.9
2018-Jul-10 22:57N 40°45' W 074°01'0 0.0
2018-Jul-09 23:55N 40°45' W 074°01'1 1.8
2018-Jul-09 23:30N 40°44' W 074°01'3 6.5
2018-Jul-09 23:00N 40°41' W 074°03'1 2.8
2018-Jul-09 22:30N 40°42' W 074°01'3 0.1
2018-Jul-08 02:50N 40°45' W 074°01'1 2.3
2018-Jul-08 02:31N 40°46' W 074°01'0 0.0
2018-Jul-08 02:00N 40°46' W 074°01'1 2.9
2018-Jul-08 01:30N 40°44' W 074°01'3 5.5
2018-Jul-08 01:01N 40°42' W 074°02'3 5.6
2018-Jul-08 00:30N 40°43' W 073°59'2 3.9
2018-Jul-08 00:01N 40°42' W 074°01'3 7.0
2018-Jul-07 23:31N 40°46' W 074°01'0 0.3
2018-Jul-07 23:00N 40°46' W 074°01'0 0.0
2018-Jul-07 22:31N 40°46' W 074°01'0 0.0
2018-Jul-07 22:00N 40°46' W 074°01'1 0.2
2018-Jul-07 18:49N 40°45' W 074°01'1 2.6
2018-Jul-07 18:30N 40°46' W 074°01'0 0.0
2018-Jul-07 18:00N 40°46' W 074°01'1 1.0
2018-Jul-07 17:31N 40°45' W 074°01'4 8.4
2018-Jul-07 17:00N 40°41' W 074°03'2 3.2
2018-Jul-07 16:30N 40°43' W 074°02'3 5.6
2018-Jul-07 15:58N 40°46' W 074°01'0 0.0
2018-Jul-07 15:30N 40°46' W 074°01'0 0.0
2018-Jul-07 15:00N 40°46' W 074°01'1 1.5
2018-Jul-07 14:29N 40°45' W 074°01'  

Dump ship's entire track history